createdAt,value
2017-08-18T00:00:46.657Z,20.08
2017-08-18T00:01:46.946Z,19.98
2017-08-18T00:02:47.003Z,20.06
2017-08-18T00:03:47.040Z,20.08
2017-08-18T00:04:46.603Z,20.14
2017-08-18T00:05:46.933Z,20.17
2017-08-18T00:06:46.572Z,20.1
2017-08-18T00:07:46.871Z,20.04
2017-08-18T00:08:46.840Z,19.99
2017-08-18T00:09:46.513Z,20.03
2017-08-18T00:10:46.193Z,20.08
2017-08-18T00:11:46.542Z,20.1
2017-08-18T00:12:46.179Z,20.16
2017-08-18T00:13:46.523Z,20.1
2017-08-18T00:14:46.133Z,20.06
2017-08-18T00:15:46.863Z,20.06
2017-08-18T00:16:46.420Z,20.07
2017-08-18T00:17:46.399Z,20.22
2017-08-18T00:18:46.394Z,20.14
2017-08-18T00:19:46.681Z,20.11
2017-08-18T00:20:46.371Z,20.11
2017-08-18T00:21:46.651Z,20.07
2017-08-18T00:22:46.021Z,20.16
2017-08-18T00:23:46.311Z,20.16
2017-08-18T00:24:46.673Z,20.2
2017-08-18T00:25:46.308Z,20.06
2017-08-18T00:26:46.590Z,20.1
2017-08-18T00:27:46.260Z,19.98
2017-08-18T00:28:46.252Z,19.99
2017-08-18T00:29:45.931Z,20.06
2017-08-18T00:30:46.223Z,20.11
2017-08-18T00:31:46.520Z,20.22
2017-08-18T00:32:45.888Z,20.06
2017-08-18T00:33:45.861Z,20.1
2017-08-18T00:34:45.859Z,20.17
2017-08-18T00:35:46.460Z,20.18
2017-08-18T00:36:46.140Z,20.26
2017-08-18T00:37:46.651Z,20.2
2017-08-18T00:38:45.808Z,20.16
2017-08-18T00:39:46.091Z,20.18
2017-08-18T00:40:46.381Z,20.17
2017-08-18T00:41:45.756Z,20.18
2017-08-18T00:42:46.350Z,20.18
2017-08-18T00:43:46.031Z,20.06
2017-08-18T00:44:46.031Z,19.96
2017-08-18T00:45:46.015Z,20.1
2017-08-18T00:46:46.537Z,19.96
2017-08-18T00:47:46.289Z,20.06
2017-08-18T00:48:46.272Z,19.96
2017-08-18T00:49:45.951Z,19.96
2017-08-18T00:50:45.931Z,19.8
2017-08-18T00:51:45.927Z,19.88
2017-08-18T00:52:46.211Z,19.77
2017-08-18T00:53:45.891Z,19.95
2017-08-18T00:54:45.883Z,19.96
2017-08-18T00:55:45.860Z,20.01
2017-08-18T00:56:45.862Z,19.92
2017-08-18T00:57:45.841Z,19.95
2017-08-18T00:58:45.820Z,19.88
2017-08-18T00:59:45.811Z,19.8
2017-08-18T01:00:45.791Z,19.85
2017-08-18T01:01:46.091Z,19.78
2017-08-18T01:02:46.061Z,19.92
2017-08-18T01:03:45.751Z,19.81
2017-08-18T01:04:45.741Z,19.74
2017-08-18T01:05:45.720Z,19.76
2017-08-18T01:06:45.723Z,19.74
2017-08-18T01:07:45.699Z,19.66
2017-08-18T01:08:45.680Z,19.67
2017-08-18T01:09:45.970Z,19.71
2017-08-18T01:10:45.643Z,19.67
2017-08-18T01:11:45.687Z,19.83
2017-08-18T01:12:45.621Z,19.92
2017-08-18T01:13:45.305Z,19.96
2017-08-18T01:14:45.599Z,19.96
2017-08-18T01:15:45.645Z,19.96
2017-08-18T01:16:45.581Z,19.99
2017-08-18T01:17:45.553Z,20.06
2017-08-18T01:18:45.848Z,19.99
2017-08-18T01:19:45.519Z,19.91
2017-08-18T01:20:45.812Z,19.78
2017-08-18T01:21:45.502Z,19.76
2017-08-18T01:22:45.792Z,19.78
2017-08-18T01:23:45.771Z,19.8
2017-08-18T01:24:45.449Z,19.81
2017-08-18T01:25:45.752Z,19.78
2017-08-18T01:26:45.731Z,19.85
2017-08-18T01:27:45.413Z,19.89
2017-08-18T01:28:45.691Z,19.92
2017-08-18T01:29:45.692Z,19.93
2017-08-18T01:30:45.692Z,19.96
2017-08-18T01:31:45.649Z,19.83
2017-08-18T01:32:45.650Z,19.92
2017-08-18T01:33:45.650Z,19.99
2017-08-18T01:34:45.657Z,19.99
2017-08-18T01:35:45.302Z,19.98
2017-08-18T01:36:45.644Z,19.95
2017-08-18T01:37:45.570Z,19.77
2017-08-18T01:38:45.644Z,19.86
2017-08-18T01:39:45.561Z,19.85
2017-08-18T01:40:45.602Z,19.67
2017-08-18T01:41:44.961Z,19.7
2017-08-18T01:42:45.585Z,19.71
2017-08-18T01:43:44.871Z,19.59
2017-08-18T01:44:45.551Z,19.49
2017-08-18T01:45:45.462Z,19.51
2017-08-18T01:46:45.139Z,19.48
2017-08-18T01:47:45.160Z,19.56
2017-08-18T01:48:44.805Z,19.52
2017-08-18T01:49:45.452Z,19.48
2017-08-18T01:50:45.434Z,19.59
2017-08-18T01:51:45.483Z,19.53
2017-08-18T01:52:45.458Z,19.62
2017-08-18T01:53:45.031Z,19.69
2017-08-18T01:54:44.721Z,19.63
2017-08-18T01:55:44.719Z,19.67
2017-08-18T01:56:44.978Z,19.56
2017-08-18T01:57:44.665Z,19.55
2017-08-18T01:58:44.956Z,19.53
2017-08-18T01:59:45.312Z,19.53
2017-08-18T02:00:44.980Z,19.52
2017-08-18T02:01:45.270Z,19.49
2017-08-18T02:02:44.908Z,19.52
2017-08-18T02:03:45.241Z,19.55
2017-08-18T02:04:44.941Z,19.48
2017-08-18T02:05:45.270Z,19.43
2017-08-18T02:06:44.844Z,19.38
2017-08-18T02:07:45.140Z,19.36
2017-08-18T02:08:45.110Z,19.37
2017-08-18T02:09:44.802Z,19.48
2017-08-18T02:10:45.090Z,19.53
2017-08-18T02:11:44.465Z,19.56
2017-08-18T02:12:45.061Z,19.48
2017-08-18T02:13:44.441Z,19.38
2017-08-18T02:14:44.721Z,19.48
2017-08-18T02:15:45.071Z,19.43
2017-08-18T02:16:44.690Z,19.53
2017-08-18T02:17:44.681Z,19.49
2017-08-18T02:18:44.660Z,19.4
2017-08-18T02:19:44.650Z,19.43
2017-08-18T02:20:44.644Z,19.4
2017-08-18T02:21:44.941Z,19.41
2017-08-18T02:22:44.921Z,19.4
2017-08-18T02:23:44.922Z,19.41
2017-08-18T02:24:44.910Z,19.36
2017-08-18T02:25:44.561Z,19.26
2017-08-18T02:26:44.851Z,19.31
2017-08-18T02:27:44.863Z,19.4
2017-08-18T02:28:44.530Z,19.4
2017-08-18T02:29:44.809Z,19.4
2017-08-18T02:30:44.520Z,19.33
2017-08-18T02:31:44.779Z,19.4
2017-08-18T02:32:44.462Z,19.43
2017-08-18T02:33:44.500Z,19.41
2017-08-18T02:34:44.425Z,19.44
2017-08-18T02:35:44.445Z,19.48
2017-08-18T02:36:44.401Z,19.3
2017-08-18T02:37:44.700Z,19.21
2017-08-18T02:38:44.690Z,19.21
2017-08-18T02:39:44.679Z,19.34
2017-08-18T02:40:44.341Z,19.23
2017-08-18T02:41:44.639Z,19.18
2017-08-18T02:42:44.321Z,19.23
2017-08-18T02:43:44.300Z,19.34
2017-08-18T02:44:44.611Z,19.34
2017-08-18T02:45:44.580Z,19.28
2017-08-18T02:46:44.260Z,19.23
2017-08-18T02:47:44.600Z,19.23
2017-08-18T02:48:44.533Z,19.18
2017-08-18T02:49:43.900Z,19.16
2017-08-18T02:50:44.202Z,19.21
2017-08-18T02:51:44.498Z,19.19
2017-08-18T02:52:44.182Z,19.18
2017-08-18T02:53:44.461Z,19.22
2017-08-18T02:54:44.441Z,19.21
2017-08-18T02:55:44.438Z,19.22
2017-08-18T02:56:44.439Z,19.22
2017-08-18T02:57:44.090Z,19.22
2017-08-18T02:58:43.774Z,19.26
2017-08-18T02:59:44.380Z,19
2017-08-18T03:00:43.760Z,18.95
2017-08-18T03:01:43.731Z,18.87
2017-08-18T03:02:44.320Z,18.85
2017-08-18T03:03:44.012Z,18.92
2017-08-18T03:04:44.287Z,18.9
2017-08-18T03:05:44.271Z,18.82
2017-08-18T03:06:43.649Z,18.75
2017-08-18T03:07:44.249Z,18.82
2017-08-18T03:08:44.245Z,18.87
2017-08-18T03:09:44.244Z,18.81
2017-08-18T03:10:43.911Z,18.93
2017-08-18T03:11:43.581Z,18.8
2017-08-18T03:12:44.199Z,18.92
2017-08-18T03:13:43.550Z,18.85
2017-08-18T03:14:44.154Z,18.84
2017-08-18T03:15:44.139Z,18.92
2017-08-18T03:16:43.544Z,18.9
2017-08-18T03:17:43.799Z,18.88
2017-08-18T03:18:44.182Z,18.97
2017-08-18T03:19:44.070Z,18.75
2017-08-18T03:20:43.466Z,18.63
2017-08-18T03:21:43.741Z,18.77
2017-08-18T03:22:44.171Z,18.77
2017-08-18T03:23:43.401Z,18.87
2017-08-18T03:24:43.693Z,18.85
2017-08-18T03:25:43.381Z,18.75
2017-08-18T03:26:43.693Z,18.66
2017-08-18T03:27:43.648Z,18.51
2017-08-18T03:28:44.009Z,18.66
2017-08-18T03:29:43.930Z,18.66
2017-08-18T03:30:44.022Z,18.56
2017-08-18T03:31:43.282Z,18.62
2017-08-18T03:32:43.910Z,18.65
2017-08-18T03:33:43.251Z,18.62
2017-08-18T03:34:43.337Z,18.6
2017-08-18T03:35:43.930Z,18.7
2017-08-18T03:36:43.834Z,18.7
2017-08-18T03:37:43.550Z,18.67
2017-08-18T03:38:43.509Z,18.73
2017-08-18T03:39:43.509Z,18.75
2017-08-18T03:40:43.171Z,18.8
2017-08-18T03:41:43.488Z,18.78
2017-08-18T03:42:43.439Z,18.93
2017-08-18T03:43:43.450Z,18.9
2017-08-18T03:44:43.431Z,18.88
2017-08-18T03:45:43.742Z,18.9
2017-08-18T03:46:43.366Z,18.87
2017-08-18T03:47:43.702Z,18.96
2017-08-18T03:48:43.851Z,18.93
2017-08-18T03:49:43.322Z,18.95
2017-08-18T03:50:43.301Z,19.02
2017-08-18T03:51:43.410Z,18.95
2017-08-18T03:52:43.566Z,18.84
2017-08-18T03:53:43.610Z,18.96
2017-08-18T03:54:43.539Z,18.96
2017-08-18T03:55:43.591Z,18.82
2017-08-18T03:56:43.211Z,18.93
2017-08-18T03:57:43.509Z,18.84
2017-08-18T03:58:43.189Z,18.88
2017-08-18T03:59:43.171Z,18.82
2017-08-18T04:00:43.169Z,18.87
2017-08-18T04:01:43.438Z,18.95
2017-08-18T04:02:43.507Z,18.88
2017-08-18T04:03:43.430Z,18.93
2017-08-18T04:04:43.420Z,18.96
2017-08-18T04:05:43.392Z,18.9
2017-08-18T04:06:43.371Z,18.82
2017-08-18T04:07:43.352Z,18.93
2017-08-18T04:08:43.384Z,18.92
2017-08-18T04:09:43.019Z,18.96
2017-08-18T04:10:42.999Z,18.99
2017-08-18T04:11:42.983Z,18.97
2017-08-18T04:12:43.269Z,19.02
2017-08-18T04:13:43.301Z,18.95
2017-08-18T04:14:43.283Z,19.02
2017-08-18T04:15:43.238Z,19.11
2017-08-18T04:16:43.216Z,19.25
2017-08-18T04:17:43.193Z,19.25
2017-08-18T04:18:43.189Z,19.02
2017-08-18T04:19:42.867Z,19.02
2017-08-18T04:20:43.164Z,19.11
2017-08-18T04:21:43.149Z,18.96
2017-08-18T04:22:43.131Z,18.95
2017-08-18T04:23:43.109Z,19.06
2017-08-18T04:24:43.091Z,19.04
2017-08-18T04:25:43.087Z,19.19
2017-08-18T04:26:42.758Z,19.19
2017-08-18T04:27:43.051Z,19.26
2017-08-18T04:28:42.429Z,19.25
2017-08-18T04:29:42.712Z,19.34
2017-08-18T04:30:42.703Z,19.3
2017-08-18T04:31:42.990Z,19.37
2017-08-18T04:32:43.005Z,19.28
2017-08-18T04:33:42.360Z,19.33
2017-08-18T04:34:42.654Z,19.33
2017-08-18T04:35:42.931Z,19.3
2017-08-18T04:36:42.632Z,19.3
2017-08-18T04:37:42.591Z,19.33
2017-08-18T04:38:42.595Z,19.3
2017-08-18T04:39:42.881Z,19.25
2017-08-18T04:40:42.550Z,19.41
2017-08-18T04:41:42.833Z,19.37
2017-08-18T04:42:42.819Z,19.41
2017-08-18T04:43:42.822Z,19.4
2017-08-18T04:44:42.824Z,19.43
2017-08-18T04:45:42.172Z,19.4
2017-08-18T04:46:42.782Z,19.28
2017-08-18T04:47:42.762Z,19.43
2017-08-18T04:48:42.428Z,19.41
2017-08-18T04:49:42.723Z,19.4
2017-08-18T04:50:42.713Z,19.43
2017-08-18T04:51:42.703Z,19.53
2017-08-18T04:52:42.681Z,19.38
2017-08-18T04:53:42.360Z,19.43
2017-08-18T04:54:42.651Z,19.3
2017-08-18T04:55:42.331Z,19.38
2017-08-18T04:56:42.320Z,19.46
2017-08-18T04:57:42.322Z,19.46
2017-08-18T04:58:41.971Z,19.48
2017-08-18T04:59:42.583Z,19.51
2017-08-18T05:00:42.570Z,19.52
2017-08-18T05:01:42.237Z,19.53
2017-08-18T05:02:42.229Z,19.53
2017-08-18T05:03:42.213Z,19.49
2017-08-18T05:04:42.242Z,19.49
2017-08-18T05:05:41.892Z,19.51
2017-08-18T05:06:42.172Z,19.41
2017-08-18T05:07:42.450Z,19.52
2017-08-18T05:08:42.158Z,19.58
2017-08-18T05:09:42.122Z,19.53
2017-08-18T05:10:42.121Z,19.59
2017-08-18T05:11:42.092Z,19.59
2017-08-18T05:12:41.783Z,19.59
2017-08-18T05:13:42.121Z,19.51
2017-08-18T05:14:42.050Z,19.48
2017-08-18T05:15:42.062Z,19.41
2017-08-18T05:16:42.343Z,19.44
2017-08-18T05:17:42.374Z,19.46
2017-08-18T05:18:42.295Z,19.49
2017-08-18T05:19:42.002Z,19.38
2017-08-18T05:20:41.970Z,19.41
2017-08-18T05:21:42.322Z,19.33
2017-08-18T05:22:41.943Z,19.46
2017-08-18T05:23:42.003Z,19.4
2017-08-18T05:24:42.231Z,19.51
2017-08-18T05:25:42.308Z,19.53
2017-08-18T05:26:42.198Z,19.52
2017-08-18T05:27:41.939Z,19.51
2017-08-18T05:28:42.160Z,19.51
2017-08-18T05:29:41.851Z,19.51
2017-08-18T05:30:42.132Z,19.48
2017-08-18T05:31:42.122Z,19.37
2017-08-18T05:32:41.498Z,19.36
2017-08-18T05:33:41.796Z,19.41
2017-08-18T05:34:42.081Z,19.3
2017-08-18T05:35:42.074Z,19.26
2017-08-18T05:36:42.042Z,19.26
2017-08-18T05:37:42.022Z,19.23
2017-08-18T05:38:41.702Z,19.07
2017-08-18T05:39:41.732Z,19.22
2017-08-18T05:40:41.989Z,19.25
2017-08-18T05:41:41.972Z,19.3
2017-08-18T05:42:41.638Z,19.21
2017-08-18T05:43:41.381Z,19.11
2017-08-18T05:44:41.921Z,19.04
2017-08-18T05:45:41.604Z,18.93
2017-08-18T05:46:41.893Z,18.95
2017-08-18T05:47:41.873Z,18.93
2017-08-18T05:48:41.596Z,18.99
2017-08-18T05:49:41.892Z,19.14
2017-08-18T05:50:41.833Z,19.15
2017-08-18T05:51:41.823Z,19.15
2017-08-18T05:52:41.184Z,19.15
2017-08-18T05:53:41.513Z,19.23
2017-08-18T05:54:41.153Z,19.33
2017-08-18T05:55:41.752Z,19.33
2017-08-18T05:56:41.753Z,19.28
2017-08-18T05:57:41.120Z,19.21
2017-08-18T05:58:41.402Z,19.19
2017-08-18T05:59:41.694Z,19.28
2017-08-18T06:00:41.681Z,19.28
2017-08-18T06:01:41.057Z,19.41
2017-08-18T06:02:41.353Z,19.37
2017-08-18T06:03:41.343Z,19.36
2017-08-18T06:04:41.637Z,19.48
2017-08-18T06:05:41.301Z,19.41
2017-08-18T06:06:41.591Z,19.46
2017-08-18T06:07:41.273Z,19.52
2017-08-18T06:08:41.251Z,19.58
2017-08-18T06:09:41.247Z,19.46
2017-08-18T06:10:41.573Z,19.46
2017-08-18T06:11:41.515Z,19.38
2017-08-18T06:12:41.192Z,19.37
2017-08-18T06:13:41.484Z,19.46
2017-08-18T06:14:41.485Z,19.28
2017-08-18T06:15:41.473Z,19.31
2017-08-18T06:16:41.161Z,19.26
2017-08-18T06:17:41.511Z,19.31
2017-08-18T06:18:41.202Z,19.43
2017-08-18T06:19:41.120Z,19.31
2017-08-18T06:20:41.095Z,19.21
2017-08-18T06:21:40.771Z,19.21
2017-08-18T06:22:41.081Z,19.07
2017-08-18T06:23:41.360Z,19.06
2017-08-18T06:24:41.032Z,19.19
2017-08-18T06:25:41.312Z,19.04
2017-08-18T06:26:41.022Z,19.14
2017-08-18T06:27:40.982Z,19.11
2017-08-18T06:28:41.278Z,18.99
2017-08-18T06:29:41.006Z,19.02
2017-08-18T06:30:40.945Z,19.08
2017-08-18T06:31:41.012Z,19.22
2017-08-18T06:32:40.912Z,19.15
2017-08-18T06:33:41.212Z,19.14
2017-08-18T06:34:40.872Z,19.04
2017-08-18T06:35:40.879Z,19.02
2017-08-18T06:36:40.843Z,18.99
2017-08-18T06:37:41.152Z,18.93
2017-08-18T06:38:40.824Z,18.88
2017-08-18T06:39:41.099Z,19.02
2017-08-18T06:40:40.787Z,19
2017-08-18T06:41:41.080Z,19.16
2017-08-18T06:42:41.052Z,19.16
2017-08-18T06:43:40.768Z,19
2017-08-18T06:44:41.049Z,18.96
2017-08-18T06:45:41.171Z,19.06
2017-08-18T06:46:41.003Z,19.08
2017-08-18T06:47:40.742Z,18.84
2017-08-18T06:48:40.981Z,18.95
2017-08-18T06:49:40.960Z,18.9
2017-08-18T06:50:40.950Z,18.92
2017-08-18T06:51:40.922Z,18.88
2017-08-18T06:52:40.913Z,18.9
2017-08-18T06:53:40.918Z,18.97
2017-08-18T06:54:40.885Z,19.08
2017-08-18T06:55:40.874Z,19.06
2017-08-18T06:56:40.861Z,18.84
2017-08-18T06:57:40.851Z,18.75
2017-08-18T06:58:40.933Z,18.77
2017-08-18T06:59:40.501Z,18.9
2017-08-18T07:00:40.784Z,18.73
2017-08-18T07:01:40.787Z,18.69
2017-08-18T07:02:40.461Z,18.74
2017-08-18T07:03:40.762Z,18.73
2017-08-18T07:04:40.745Z,18.65
2017-08-18T07:05:40.732Z,18.62
2017-08-18T07:06:40.710Z,18.73
2017-08-18T07:07:40.706Z,18.87
2017-08-18T07:08:40.696Z,18.58
2017-08-18T07:09:40.350Z,18.45
2017-08-18T07:10:40.042Z,18.52
2017-08-18T07:11:40.323Z,18.62
2017-08-18T07:12:39.991Z,18.75
2017-08-18T07:13:40.303Z,18.75
2017-08-18T07:14:40.282Z,18.73
2017-08-18T07:15:40.603Z,18.96
2017-08-18T07:16:40.575Z,18.9
2017-08-18T07:17:40.242Z,18.82
2017-08-18T07:18:40.211Z,19.04
2017-08-18T07:19:40.248Z,19.16
2017-08-18T07:20:40.601Z,19.19
2017-08-18T07:21:39.875Z,19.12
2017-08-18T07:22:40.459Z,19.22
2017-08-18T07:23:40.173Z,19.16
2017-08-18T07:24:40.431Z,19.23
2017-08-18T07:25:40.415Z,19.15
2017-08-18T07:26:40.450Z,18.93
2017-08-18T07:27:40.392Z,19
2017-08-18T07:28:40.424Z,19.06
2017-08-18T07:29:40.363Z,19.12
2017-08-18T07:30:39.831Z,19.16
2017-08-18T07:31:40.331Z,19.12
2017-08-18T07:32:40.021Z,19.23
2017-08-18T07:33:40.003Z,19.21
2017-08-18T07:34:40.281Z,19.19
2017-08-18T07:35:40.282Z,19.22
2017-08-18T07:36:39.649Z,19.19
2017-08-18T07:37:40.249Z,19.3
2017-08-18T07:38:39.631Z,19.43
2017-08-18T07:39:39.911Z,19.38
2017-08-18T07:40:39.612Z,19.34
2017-08-18T07:41:39.572Z,19.19
2017-08-18T07:42:39.872Z,19.23
2017-08-18T07:43:39.862Z,19.14
2017-08-18T07:44:39.851Z,19.11
2017-08-18T07:45:39.813Z,19.23
2017-08-18T07:46:40.100Z,19.28
2017-08-18T07:47:40.121Z,19.46
2017-08-18T07:48:40.090Z,19.48
2017-08-18T07:49:39.468Z,19.59
2017-08-18T07:50:40.062Z,19.49
2017-08-18T07:51:40.041Z,19.48
2017-08-18T07:52:40.031Z,19.43
2017-08-18T07:53:39.706Z,19.53
2017-08-18T07:54:40.003Z,19.53
2017-08-18T07:55:39.392Z,19.46
2017-08-18T07:56:39.350Z,19.51
2017-08-18T07:57:39.650Z,19.55
2017-08-18T07:58:39.641Z,19.56
2017-08-18T07:59:39.620Z,19.66
2017-08-18T08:00:39.929Z,19.8
2017-08-18T08:01:39.600Z,19.7
2017-08-18T08:02:39.889Z,19.78
2017-08-18T08:03:39.874Z,19.99
2017-08-18T08:04:39.580Z,19.83
2017-08-18T08:05:39.858Z,19.77
2017-08-18T08:06:39.829Z,19.74
2017-08-18T08:07:39.197Z,19.52
2017-08-18T08:08:39.585Z,19.52
2017-08-18T08:09:39.799Z,19.48
2017-08-18T08:10:39.769Z,19.36
2017-08-18T08:11:39.780Z,19.49
2017-08-18T08:12:39.460Z,19.51
2017-08-18T08:13:39.432Z,19.51
2017-08-18T08:14:39.456Z,19.53
2017-08-18T08:15:39.709Z,19.52
2017-08-18T08:16:39.452Z,19.58
2017-08-18T08:17:39.680Z,19.61
2017-08-18T08:18:39.348Z,19.71
2017-08-18T08:19:39.650Z,19.78
2017-08-18T08:20:39.642Z,19.93
2017-08-18T08:21:39.309Z,20.08
2017-08-18T08:22:39.629Z,20.11
2017-08-18T08:23:39.591Z,20.1
2017-08-18T08:24:39.271Z,20.11
2017-08-18T08:25:39.569Z,20.11
2017-08-18T08:26:38.939Z,19.99
2017-08-18T08:27:39.219Z,20.08
2017-08-18T08:28:39.209Z,19.77
2017-08-18T08:29:39.230Z,19.66
2017-08-18T08:30:39.506Z,19.53
2017-08-18T08:31:38.883Z,19.56
2017-08-18T08:32:39.226Z,19.74
2017-08-18T08:33:39.152Z,19.8
2017-08-18T08:34:39.493Z,19.93
2017-08-18T08:35:39.415Z,20.04
2017-08-18T08:36:39.111Z,20.13
2017-08-18T08:37:39.498Z,20.2
2017-08-18T08:38:39.386Z,20.17
2017-08-18T08:39:39.371Z,20.08
2017-08-18T08:40:38.741Z,20.13
2017-08-18T08:41:39.348Z,20.16
2017-08-18T08:42:39.101Z,20.2
2017-08-18T08:43:39.349Z,20.29
2017-08-18T08:44:39.309Z,20.4
2017-08-18T08:45:39.298Z,20.16
2017-08-18T08:46:39.274Z,20.06
2017-08-18T08:47:38.958Z,20.07
2017-08-18T08:48:39.349Z,20.16
2017-08-18T08:49:39.322Z,20.03
2017-08-18T08:50:38.599Z,19.96
2017-08-18T08:51:38.920Z,19.92
2017-08-18T08:52:39.178Z,19.88
2017-08-18T08:53:38.896Z,19.76
2017-08-18T08:54:38.860Z,19.7
2017-08-18T08:55:39.159Z,19.74
2017-08-18T08:56:39.136Z,19.76
2017-08-18T08:57:39.118Z,19.76
2017-08-18T08:58:39.108Z,19.81
2017-08-18T08:59:38.796Z,19.81
2017-08-18T09:00:39.068Z,20.03
2017-08-18T09:01:39.130Z,20.08
2017-08-18T09:02:39.058Z,20.03
2017-08-18T09:03:38.433Z,19.96
2017-08-18T09:04:39.047Z,20.2
2017-08-18T09:05:38.709Z,20.38
2017-08-18T09:06:38.700Z,20.35
2017-08-18T09:07:38.678Z,20.48
2017-08-18T09:08:38.964Z,20.67
2017-08-18T09:09:38.648Z,20.74
2017-08-18T09:10:38.639Z,20.76
2017-08-18T09:11:38.622Z,20.62
2017-08-18T09:12:38.608Z,20.41
2017-08-18T09:13:38.596Z,20.44
2017-08-18T09:14:38.879Z,20.51
2017-08-18T09:15:38.585Z,20.6
2017-08-18T09:16:38.899Z,20.48
2017-08-18T09:17:38.851Z,20.6
2017-08-18T09:18:38.844Z,20.67
2017-08-18T09:19:38.532Z,20.44
2017-08-18T09:20:38.511Z,20.43
2017-08-18T09:21:38.510Z,20.41
2017-08-18T09:22:38.791Z,20.33
2017-08-18T09:23:38.818Z,20.33
2017-08-18T09:24:38.746Z,20.38
2017-08-18T09:25:38.748Z,20.6
2017-08-18T09:26:38.448Z,20.66
2017-08-18T09:27:38.401Z,20.67
2017-08-18T09:28:38.389Z,20.73
2017-08-18T09:29:38.383Z,20.94
2017-08-18T09:30:38.679Z,21.07
2017-08-18T09:31:38.667Z,21.06
2017-08-18T09:32:38.668Z,21.13
2017-08-18T09:33:38.642Z,21.21
2017-08-18T09:34:38.317Z,21.31
2017-08-18T09:35:38.629Z,21.37
2017-08-18T09:36:38.341Z,21.46
2017-08-18T09:37:38.598Z,21.03
2017-08-18T09:38:38.578Z,20.6
2017-08-18T09:39:38.576Z,20.54
2017-08-18T09:40:38.550Z,20.49
2017-08-18T09:41:38.531Z,20.36
2017-08-18T09:42:38.524Z,20.41
2017-08-18T09:43:38.526Z,20.49
2017-08-18T09:44:38.491Z,20.52
2017-08-18T09:45:38.197Z,20.58
2017-08-18T09:46:38.182Z,20.44
2017-08-18T09:47:38.465Z,20.52
2017-08-18T09:48:38.454Z,20.48
2017-08-18T09:49:38.424Z,20.6
2017-08-18T09:50:38.432Z,20.72
2017-08-18T09:51:37.790Z,20.91
2017-08-18T09:52:38.499Z,21.07
2017-08-18T09:53:38.071Z,21.1
2017-08-18T09:54:38.433Z,21.06
2017-08-18T09:55:38.379Z,21.22
2017-08-18T09:56:38.363Z,20.88
2017-08-18T09:57:38.328Z,20.92
2017-08-18T09:58:38.318Z,20.89
2017-08-18T09:59:38.312Z,20.78
2017-08-18T10:00:38.411Z,20.85
2017-08-18T10:01:37.960Z,20.91
2017-08-18T10:02:37.770Z,20.69
2017-08-18T10:03:37.949Z,20.63
2017-08-18T10:04:37.979Z,20.69
2017-08-18T10:05:38.229Z,20.81
2017-08-18T10:06:38.206Z,20.97
2017-08-18T10:07:37.899Z,21.1
2017-08-18T10:08:38.197Z,21.13
2017-08-18T10:09:38.239Z,21.09
2017-08-18T10:10:38.167Z,21.07
2017-08-18T10:11:38.141Z,21.03
2017-08-18T10:12:37.848Z,20.94
2017-08-18T10:13:38.119Z,21.06
2017-08-18T10:14:38.137Z,21.21
2017-08-18T10:15:37.779Z,21.24
2017-08-18T10:16:37.519Z,21.37
2017-08-18T10:17:38.059Z,21.28
2017-08-18T10:18:38.076Z,21.31
2017-08-18T10:19:38.043Z,21.22
2017-08-18T10:20:37.726Z,21.39
2017-08-18T10:21:38.028Z,21.39
2017-08-18T10:22:38.041Z,21.36
2017-08-18T10:23:38.026Z,21.22
2017-08-18T10:24:37.688Z,21.22
2017-08-18T10:25:38.065Z,21.43
2017-08-18T10:26:37.960Z,21.44
2017-08-18T10:27:37.930Z,21.37
2017-08-18T10:28:37.918Z,21.36
2017-08-18T10:29:37.993Z,21.39
2017-08-18T10:30:37.910Z,21.4
2017-08-18T10:31:37.570Z,21.39
2017-08-18T10:32:37.880Z,21.29
2017-08-18T10:33:37.540Z,21.34
2017-08-18T10:34:37.829Z,21.29
2017-08-18T10:35:37.829Z,21.49
2017-08-18T10:36:37.811Z,21.56
2017-08-18T10:37:37.489Z,21.64
2017-08-18T10:38:37.475Z,21.61
2017-08-18T10:39:37.473Z,21.46
2017-08-18T10:40:37.769Z,21.55
2017-08-18T10:41:37.439Z,21.59
2017-08-18T10:42:37.753Z,21.61
2017-08-18T10:43:37.721Z,21.33
2017-08-18T10:44:37.729Z,21.49
2017-08-18T10:45:37.708Z,21.5
2017-08-18T10:46:37.689Z,21.61
2017-08-18T10:47:37.049Z,21.5
2017-08-18T10:48:37.663Z,21.59
2017-08-18T10:49:37.646Z,21.55
2017-08-18T10:50:37.640Z,21.68
2017-08-18T10:51:37.660Z,21.64
2017-08-18T10:52:37.641Z,21.76
2017-08-18T10:53:37.610Z,21.64
2017-08-18T10:54:37.589Z,21.55
2017-08-18T10:55:37.560Z,21.39
2017-08-18T10:56:37.570Z,21.46
2017-08-18T10:57:37.551Z,21.52
2017-08-18T10:58:37.541Z,21.46
2017-08-18T10:59:37.201Z,21.52
2017-08-18T11:00:36.904Z,21.47
2017-08-18T11:01:37.519Z,21.43
2017-08-18T11:02:37.468Z,21.24
2017-08-18T11:03:37.468Z,21.29
2017-08-18T11:04:37.200Z,21.43
2017-08-18T11:05:37.461Z,21.29
2017-08-18T11:06:37.120Z,21.25
2017-08-18T11:07:37.117Z,21.43
2017-08-18T11:08:37.440Z,21.43
2017-08-18T11:09:37.095Z,21.43
2017-08-18T11:10:36.778Z,21.41
2017-08-18T11:11:37.378Z,21.44
2017-08-18T11:12:37.063Z,21.37
2017-08-18T11:13:37.038Z,21.26
2017-08-18T11:14:37.028Z,21.24
2017-08-18T11:15:36.996Z,21.36
2017-08-18T11:16:37.311Z,21.33
2017-08-18T11:17:37.318Z,21.34
2017-08-18T11:18:37.292Z,21.39
2017-08-18T11:19:36.969Z,21.49
2017-08-18T11:20:36.940Z,21.47
2017-08-18T11:21:36.940Z,21.47
2017-08-18T11:22:36.912Z,21.49
2017-08-18T11:23:37.219Z,21.61
2017-08-18T11:24:37.200Z,21.65
2017-08-18T11:25:36.878Z,21.68
2017-08-18T11:26:36.549Z,21.77
2017-08-18T11:27:37.177Z,21.71
2017-08-18T11:28:37.170Z,21.62
2017-08-18T11:29:37.150Z,21.62
2017-08-18T11:30:37.120Z,21.56
2017-08-18T11:31:36.801Z,21.62
2017-08-18T11:32:36.807Z,21.56
2017-08-18T11:33:37.080Z,21.46
2017-08-18T11:34:37.086Z,21.52
2017-08-18T11:35:37.072Z,21.55
2017-08-18T11:36:37.041Z,21.62
2017-08-18T11:37:37.032Z,21.61
2017-08-18T11:38:37.031Z,21.7
2017-08-18T11:39:36.705Z,21.77
2017-08-18T11:40:37.012Z,21.83
2017-08-18T11:41:37.009Z,21.84
2017-08-18T11:42:36.970Z,21.84
2017-08-18T11:43:36.670Z,21.86
2017-08-18T11:44:36.952Z,21.88
2017-08-18T11:45:36.939Z,21.83
2017-08-18T11:46:36.925Z,21.79
2017-08-18T11:47:36.590Z,21.59
2017-08-18T11:48:36.890Z,21.71
2017-08-18T11:49:36.586Z,21.76
2017-08-18T11:50:36.863Z,21.84
2017-08-18T11:51:36.552Z,21.84
2017-08-18T11:52:36.237Z,21.8
2017-08-18T11:53:36.822Z,21.8
2017-08-18T11:54:36.196Z,21.79
2017-08-18T11:55:36.800Z,21.76
2017-08-18T11:56:36.497Z,21.81
2017-08-18T11:57:36.497Z,21.92
2017-08-18T11:58:36.213Z,21.95
2017-08-18T11:59:36.750Z,21.97
2017-08-18T12:00:36.749Z,21.96
2017-08-18T12:01:36.740Z,21.93
2017-08-18T12:02:36.722Z,22.03
2017-08-18T12:03:36.104Z,22.06
2017-08-18T12:04:36.710Z,22.08
2017-08-18T12:05:36.682Z,22.1
2017-08-18T12:06:36.370Z,22.12
2017-08-18T12:07:36.678Z,22.08
2017-08-18T12:08:36.341Z,22.12
2017-08-18T12:09:36.621Z,22.1
2017-08-18T12:10:36.610Z,22.1
2017-08-18T12:11:36.612Z,22.02
2017-08-18T12:12:36.599Z,22.08
2017-08-18T12:13:36.586Z,21.96
2017-08-18T12:14:36.565Z,21.95
2017-08-18T12:15:36.249Z,22.06
2017-08-18T12:16:36.334Z,22.14
2017-08-18T12:17:36.549Z,22.08
2017-08-18T12:18:36.265Z,22.06
2017-08-18T12:19:36.211Z,22.24
2017-08-18T12:20:36.182Z,22.21
2017-08-18T12:21:36.175Z,22.06
2017-08-18T12:22:36.160Z,22.2
2017-08-18T12:23:36.450Z,22.14
2017-08-18T12:24:36.273Z,22.08
2017-08-18T12:25:36.134Z,21.76
2017-08-18T12:26:36.560Z,21.74
2017-08-18T12:27:36.551Z,21.8
2017-08-18T12:28:36.084Z,21.88
2017-08-18T12:29:36.393Z,21.7
2017-08-18T12:30:36.075Z,21.64
2017-08-18T12:31:35.738Z,21.81
2017-08-18T12:32:36.060Z,21.93
2017-08-18T12:33:36.224Z,21.96
2017-08-18T12:34:36.321Z,21.7
2017-08-18T12:35:36.320Z,21.58
2017-08-18T12:36:36.073Z,21.56
2017-08-18T12:37:36.291Z,21.56
2017-08-18T12:38:36.352Z,21.66
2017-08-18T12:39:36.561Z,21.68
2017-08-18T12:40:36.253Z,21.55
2017-08-18T12:41:36.244Z,21.61
2017-08-18T12:42:36.226Z,21.59
2017-08-18T12:43:36.249Z,21.56
2017-08-18T12:44:36.260Z,21.68
2017-08-18T12:45:36.202Z,21.58
2017-08-18T12:46:36.182Z,21.56
2017-08-18T12:47:36.208Z,21.59
2017-08-18T12:48:36.137Z,21.49
2017-08-18T12:49:36.153Z,21.55
2017-08-18T12:50:36.240Z,21.66
2017-08-18T12:51:36.113Z,21.7
2017-08-18T12:52:36.114Z,21.76
2017-08-18T12:53:36.095Z,21.76
2017-08-18T12:54:36.165Z,21.62
2017-08-18T12:55:36.160Z,21.58